Time;durP1;ratioP1;P1;durP2;ratioP2;P2;SDS_P1;SDS_P2;PMS_P1;PMS_P2;Temp;Humidity;BMP_temperature;BMP_pressure;BME280_temperature;BME280_humidity;BME280_pressure;Samples;Min_cycle;Max_cycle;Signal;HPM_P1;HPM_P2
2023/07/28 00:02:10;;;;;;;14.43;11.20;;;25.10;91.40;;;;;;4979481;28;20210;-71
2023/07/28 00:04:36;;;;;;;11.43;10.13;;;25.00;91.40;;;;;;4980278;28;20398;-72
2023/07/28 00:07:03;;;;;;;12.30;11.10;;;25.10;91.40;;;;;;4984798;28;20137;-73
2023/07/28 00:09:30;;;;;;;12.60;11.07;;;25.00;91.30;;;;;;4979779;28;20038;-74
2023/07/28 00:11:57;;;;;;;14.40;11.15;;;25.10;91.30;;;;;;4983302;28;20037;-73
2023/07/28 00:14:24;;;;;;;16.20;11.80;;;25.10;91.30;;;;;;4981578;28;20042;-71
2023/07/28 00:16:55;;;;;;;16.60;11.75;;;25.10;91.30;;;;;;4983913;28;20590;-72
2023/07/28 00:19:21;;;;;;;13.73;11.75;;;25.10;91.60;;;;;;4984643;28;20034;-72
2023/07/28 00:21:48;;;;;;;13.38;11.73;;;25.00;91.30;;;;;;4983040;28;20129;-71
2023/07/28 00:24:14;;;;;;;13.02;11.10;;;25.00;91.30;;;;;;4986738;28;20431;-71
2023/07/28 00:26:40;;;;;;;13.18;10.93;;;25.10;91.20;;;;;;4984095;28;20045;-71
2023/07/28 00:29:07;;;;;;;16.10;11.38;;;25.00;91.20;;;;;;4982763;28;20034;-71
2023/07/28 00:31:35;;;;;;;13.02;11.25;;;25.00;91.20;;;;;;4986489;28;20520;-71
2023/07/28 00:34:02;;;;;;;12.48;10.68;;;25.00;91.20;;;;;;4983459;28;20031;-71
2023/07/28 00:36:30;;;;;;;14.10;11.20;;;25.10;91.20;;;;;;4984960;28;20097;-72
2023/07/28 00:38:57;;;;;;;12.65;10.48;;;25.10;91.20;;;;;;4984472;28;20493;-72
2023/07/28 00:41:23;;;;;;;15.30;11.30;;;25.00;91.20;;;;;;4982507;28;20129;-71
2023/07/28 00:43:48;;;;;;;14.10;11.95;;;25.00;91.20;;;;;;4985179;28;20469;-72
2023/07/28 00:46:16;;;;;;;14.52;10.75;;;25.00;91.20;;;;;;4984166;28;20549;-72
2023/07/28 00:48:42;;;;;;;12.55;10.52;;;25.00;91.30;;;;;;4984702;28;20058;-71
2023/07/28 00:51:09;;;;;;;13.45;11.43;;;25.00;91.30;;;;;;4985344;28;20029;-71
2023/07/28 00:53:35;;;;;;;12.63;11.32;;;25.00;91.30;;;;;;4985676;28;20057;-71
2023/07/28 00:56:02;;;;;;;11.88;10.68;;;25.00;91.30;;;;;;4982359;28;20425;-71
2023/07/28 00:58:29;;;;;;;14.50;10.55;;;25.00;91.30;;;;;;4986104;28;20396;-71
2023/07/28 01:00:55;;;;;;;12.35;11.05;;;24.90;91.30;;;;;;4982660;28;20088;-71
2023/07/28 01:03:23;;;;;;;15.18;11.05;;;24.90;91.30;;;;;;4981929;28;20039;-71
2023/07/28 01:06:11;;;;;;;12.30;10.95;;;25.00;91.40;;;;;;4986582;28;20125;-71
2023/07/28 01:08:47;;;;;;;13.43;11.50;;;24.90;91.40;;;;;;4983704;28;20058;-70
2023/07/28 01:11:14;;;;;;;12.95;11.40;;;25.00;91.40;;;;;;4984499;28;20088;-71
2023/07/28 01:13:41;;;;;;;14.35;11.70;;;24.90;91.40;;;;;;4983125;28;20038;-72
2023/07/28 01:16:08;;;;;;;14.35;11.00;;;24.90;91.40;;;;;;4982679;28;20041;-71
2023/07/28 01:18:34;;;;;;;12.68;11.38;;;24.90;91.50;;;;;;4984650;28;20046;-71
2023/07/28 01:21:03;;;;;;;12.77;11.48;;;24.90;91.50;;;;;;4983531;28;20117;-71
2023/07/28 01:24:10;;;;;;;12.20;10.85;;;24.90;91.40;;;;;;4983494;28;20537;-71
2023/07/28 01:26:37;;;;;;;13.02;11.15;;;24.90;91.40;;;;;;4983383;28;20096;-73
2023/07/28 01:29:07;;;;;;;12.45;11.15;;;24.90;91.50;;;;;;4984800;28;20149;-73
2023/07/28 01:31:33;;;;;;;13.10;11.35;;;24.90;91.50;;;;;;4985053;28;20238;-73
2023/07/28 01:33:59;;;;;;;13.65;11.73;;;24.90;91.50;;;;;;4986796;28;20034;-73
2023/07/28 01:36:25;;;;;;;13.45;12.07;;;24.90;91.60;;;;;;4983629;28;20125;-73
2023/07/28 01:38:51;;;;;;;15.85;12.07;;;24.90;91.50;;;;;;4982766;28;20122;-72
2023/07/28 01:41:17;;;;;;;14.27;11.15;;;24.90;91.50;;;;;;4985589;28;20030;-72
2023/07/28 01:43:43;;;;;;;14.95;11.45;;;24.90;91.60;;;;;;4981793;28;20691;-72
2023/07/28 01:46:09;;;;;;;14.20;11.05;;;24.80;91.50;;;;;;4981330;28;20086;-72
2023/07/28 01:48:35;;;;;;;12.52;11.20;;;24.90;91.60;;;;;;4986396;28;20544;-71
2023/07/28 01:51:01;;;;;;;11.50;10.43;;;24.90;91.60;;;;;;4985030;28;20133;-71
2023/07/28 01:53:27;;;;;;;13.95;11.15;;;24.80;91.50;;;;;;4970093;28;20374;-72
2023/07/28 01:55:53;;;;;;;13.10;11.05;;;24.90;91.50;;;;;;4981532;28;20045;-73
2023/07/28 01:58:19;;;;;;;13.18;11.00;;;24.90;91.50;;;;;;4986403;28;20034;-72
2023/07/28 02:00:46;;;;;;;13.98;11.38;;;24.90;91.50;;;;;;5014048;28;20034;-72
2023/07/28 02:03:12;;;;;;;13.13;11.38;;;24.90;91.50;;;;;;4982185;28;20034;-72
2023/07/28 02:05:38;;;;;;;12.80;11.50;;;24.90;91.50;;;;;;4984545;28;20400;-72
2023/07/28 02:08:04;;;;;;;16.20;12.05;;;24.80;91.70;;;;;;4981514;28;20096;-73
2023/07/28 02:10:30;;;;;;;13.13;11.82;;;24.80;91.50;;;;;;4985572;28;20097;-73
2023/07/28 02:12:56;;;;;;;12.07;10.88;;;24.90;91.50;;;;;;4982453;28;20442;-73
2023/07/28 02:15:22;;;;;;;12.23;11.02;;;24.90;91.50;;;;;;4980473;28;20126;-73
2023/07/28 02:17:49;;;;;;;12.77;11.13;;;24.80;91.50;;;;;;4984258;28;20042;-72
2023/07/28 02:20:15;;;;;;;14.20;11.50;;;24.80;91.50;;;;;;4982151;28;20081;-73
2023/07/28 02:22:42;;;;;;;13.40;11.82;;;24.80;91.50;;;;;;4980600;28;20035;-73
2023/07/28 02:25:09;;;;;;;13.05;11.73;;;24.80;91.50;;;;;;4984196;28;20041;-73
2023/07/28 02:27:35;;;;;;;14.27;11.80;;;24.90;91.50;;;;;;4982624;28;20042;-72
2023/07/28 02:30:01;;;;;;;12.77;11.43;;;24.80;91.50;;;;;;4981597;28;20461;-71
2023/07/28 02:32:30;;;;;;;12.98;11.60;;;24.90;91.40;;;;;;4981201;28;20039;-70
2023/07/28 02:34:56;;;;;;;14.38;11.30;;;24.90;91.30;;;;;;4983022;28;20132;-71
2023/07/28 02:37:22;;;;;;;13.27;11.82;;;24.90;91.30;;;;;;4983180;28;20129;-70
2023/07/28 02:39:48;;;;;;;13.65;11.15;;;24.90;91.30;;;;;;4981613;28;20167;-71
2023/07/28 02:42:15;;;;;;;12.63;11.27;;;24.90;91.30;;;;;;4980941;28;20030;-71
2023/07/28 02:44:41;;;;;;;12.55;11.25;;;24.90;91.30;;;;;;4981612;28;20052;-71
2023/07/28 02:47:07;;;;;;;15.88;11.95;;;24.90;91.30;;;;;;4985509;28;20058;-73
2023/07/28 02:49:34;;;;;;;16.60;11.73;;;24.80;91.30;;;;;;4982407;28;20041;-72
2023/07/28 02:52:00;;;;;;;12.95;11.50;;;24.80;91.20;;;;;;4980957;28;20041;-72
2023/07/28 02:54:26;;;;;;;12.40;11.10;;;24.90;91.20;;;;;;4996168;28;20027;-71
2023/07/28 02:56:53;;;;;;;13.18;11.13;;;24.90;91.20;;;;;;4980195;28;20065;-72
2023/07/28 02:59:19;;;;;;;14.63;11.48;;;24.90;91.20;;;;;;4981485;28;20030;-72
2023/07/28 03:01:45;;;;;;;12.48;11.15;;;24.80;91.20;;;;;;4983450;28;20026;-70
2023/07/28 03:04:11;;;;;;;13.85;10.90;;;24.80;91.20;;;;;;4979880;28;20523;-71
2023/07/28 03:07:07;;;;;;;12.38;11.02;;;24.90;91.30;;;;;;4945050;28;20195;-71
2023/07/28 03:09:35;;;;;;;14.50;11.27;;;24.80;91.20;;;;;;4944579;28;20691;-71
2023/07/28 03:12:03;;;;;;;14.32;11.13;;;24.80;91.10;;;;;;4928518;29;20054;-71
2023/07/28 03:14:29;;;;;;;14.60;11.73;;;24.90;91.10;;;;;;4924771;29;20124;-71
2023/07/28 03:16:55;;;;;;;14.15;11.13;;;24.80;91.10;;;;;;4924291;29;20137;-71
2023/07/28 03:19:21;;;;;;;13.55;11.20;;;24.80;91.00;;;;;;4929158;29;20122;-71
2023/07/28 03:21:48;;;;;;;13.00;10.85;;;24.80;91.00;;;;;;4944524;28;20031;-71
2023/07/28 03:24:14;;;;;;;18.65;12.13;;;24.80;91.20;;;;;;4944476;29;20046;-72
2023/07/28 03:26:40;;;;;;;12.35;11.15;;;24.90;90.90;;;;;;4936538;28;20035;-72
2023/07/28 03:29:06;;;;;;;12.23;10.75;;;24.90;91.00;;;;;;4944728;28;20046;-72
2023/07/28 03:31:35;;;;;;;12.07;10.80;;;24.80;90.90;;;;;;4924007;29;20036;-72
2023/07/28 03:34:03;;;;;;;13.63;10.95;;;24.90;90.90;;;;;;4923473;28;20051;-72
2023/07/28 03:36:29;;;;;;;13.88;11.40;;;24.80;90.90;;;;;;4944592;29;20047;-72
2023/07/28 03:38:55;;;;;;;16.65;11.52;;;24.80;90.90;;;;;;4943666;29;20831;-72
2023/07/28 03:41:21;;;;;;;15.02;10.98;;;24.80;90.90;;;;;;4944634;28;20031;-72
2023/07/28 03:43:47;;;;;;;12.45;11.25;;;24.80;90.90;;;;;;4991004;28;20448;-73
2023/07/28 03:46:13;;;;;;;13.57;10.98;;;24.80;91.00;;;;;;4979492;28;20030;-74
2023/07/28 03:48:39;;;;;;;11.80;10.55;;;24.80;91.10;;;;;;4980437;28;20042;-73
2023/07/28 03:51:05;;;;;;;15.30;11.75;;;24.80;91.10;;;;;;4997084;28;20042;-73
2023/07/28 03:53:31;;;;;;;13.38;10.77;;;24.90;91.10;;;;;;4979315;28;20034;-74
2023/07/28 03:55:58;;;;;;;14.70;11.48;;;24.80;91.10;;;;;;4980156;28;20524;-74
2023/07/28 03:58:25;;;;;;;13.75;11.88;;;24.80;91.10;;;;;;4980459;28;20038;-75
2023/07/28 04:00:53;;;;;;;14.68;11.45;;;24.80;91.10;;;;;;4981623;28;20101;-74
2023/07/28 04:03:19;;;;;;;14.02;11.73;;;24.80;91.20;;;;;;4982683;28;20033;-73
2023/07/28 04:05:45;;;;;;;13.52;11.65;;;24.80;91.40;;;;;;4980955;28;20046;-72
2023/07/28 04:08:11;;;;;;;12.68;11.13;;;24.80;91.40;;;;;;4983179;28;20575;-71
2023/07/28 04:10:37;;;;;;;12.02;10.02;;;24.80;91.30;;;;;;4979074;28;20116;-72
2023/07/28 04:13:03;;;;;;;13.00;10.40;;;24.80;91.30;;;;;;4980080;28;20126;-72
2023/07/28 04:15:29;;;;;;;12.20;10.02;;;24.70;91.20;;;;;;4979627;28;21005;-73
2023/07/28 04:17:55;;;;;;;11.50;10.30;;;24.70;91.30;;;;;;4982050;28;20054;-73
2023/07/28 04:20:21;;;;;;;11.98;10.27;;;24.70;91.40;;;;;;4995623;28;20038;-73
2023/07/28 04:22:47;;;;;;;11.73;9.93;;;24.70;91.40;;;;;;4980199;28;20026;-72
2023/07/28 04:25:13;;;;;;;14.50;10.93;;;24.70;91.40;;;;;;4980668;28;20216;-73
2023/07/28 04:27:44;;;;;;;15.25;10.77;;;24.70;91.40;;;;;;4983165;28;20719;-72
2023/07/28 04:30:10;;;;;;;12.38;10.98;;;24.60;91.40;;;;;;4981052;28;20529;-73
2023/07/28 04:32:36;;;;;;;14.43;10.25;;;24.60;91.40;;;;;;4980180;28;20038;-73
2023/07/28 04:35:10;;;;;;;11.68;9.88;;;24.60;91.40;;;;;;4978257;28;20045;-73
2023/07/28 04:37:55;;;;;;;13.77;10.20;;;24.70;91.40;;;;;;5011427;28;20089;-73
2023/07/28 04:40:39;;;;;;;11.65;10.40;;;24.60;91.50;;;;;;4977849;28;20040;-73
2023/07/28 04:43:05;;;;;;;12.18;10.00;;;24.60;91.50;;;;;;4979031;28;20501;-72
2023/07/28 04:45:31;;;;;;;12.63;10.00;;;24.70;91.60;;;;;;4979164;28;20085;-73
2023/07/28 04:48:01;;;;;;;12.57;10.23;;;24.60;91.60;;;;;;4979870;28;20190;-73
2023/07/28 04:50:27;;;;;;;13.73;10.27;;;24.70;91.70;;;;;;4993289;28;20560;-73
2023/07/28 04:53:12;;;;;;;13.70;10.50;;;24.70;91.70;;;;;;4983261;28;20046;-73
2023/07/28 04:55:38;;;;;;;12.88;9.93;;;24.70;91.70;;;;;;4980936;28;20039;-73
2023/07/28 04:58:04;;;;;;;12.63;9.30;;;24.70;91.60;;;;;;4977614;28;20088;-73
2023/07/28 05:00:42;;;;;;;13.18;9.82;;;24.70;91.60;;;;;;4977214;28;20045;-72
2023/07/28 05:03:08;;;;;;;12.43;9.10;;;24.80;91.70;;;;;;4984003;28;20030;-73
2023/07/28 05:05:44;;;;;;;11.55;9.35;;;24.80;91.60;;;;;;4981860;28;20042;-73
2023/07/28 05:08:10;;;;;;;10.05;8.88;;;24.80;91.50;;;;;;4986007;28;20047;-73
2023/07/28 05:10:37;;;;;;;11.95;8.93;;;24.90;91.50;;;;;;4970866;28;20502;-73
2023/07/28 05:13:04;;;;;;;10.57;8.35;;;25.00;91.50;;;;;;4981226;28;20062;-73
2023/07/28 05:15:30;;;;;;;10.32;8.15;;;25.00;91.50;;;;;;4983081;28;20038;-73
2023/07/28 05:17:56;;;;;;;12.73;7.72;;;25.10;91.30;;;;;;4981808;28;20509;-73
2023/07/28 05:20:39;;;;;;;8.95;7.68;;;25.30;91.30;;;;;;4980556;28;20045;-73
2023/07/28 05:23:12;;;;;;;10.60;7.38;;;25.30;91.10;;;;;;4982624;28;20117;-73
2023/07/28 05:25:38;;;;;;;7.95;7.15;;;25.40;91.00;;;;;;4983738;28;20445;-73
2023/07/28 05:28:04;;;;;;;8.07;7.13;;;25.50;90.80;;;;;;4981091;28;20038;-73
2023/07/28 05:30:33;;;;;;;8.23;6.30;;;25.50;90.60;;;;;;5013183;28;20046;-74
2023/07/28 05:32:59;;;;;;;7.70;6.55;;;25.60;90.50;;;;;;4986418;28;20085;-74
2023/07/28 05:35:45;;;;;;;7.72;6.80;;;25.70;90.30;;;;;;4980820;28;20041;-74
2023/07/28 05:38:11;;;;;;;9.23;6.68;;;25.80;90.10;;;;;;4981651;28;20031;-74
2023/07/28 05:40:37;;;;;;;7.53;6.75;;;25.90;90.10;;;;;;4983201;28;20026;-73
2023/07/28 05:43:03;;;;;;;6.97;6.07;;;26.00;89.90;;;;;;4981227;28;20038;-73
2023/07/28 05:45:29;;;;;;;8.38;6.40;;;26.00;89.70;;;;;;4981465;28;20067;-73
2023/07/28 05:47:55;;;;;;;7.00;6.30;;;26.10;89.40;;;;;;4982036;28;20035;-73
2023/07/28 05:50:21;;;;;;;9.10;6.70;;;26.10;89.20;;;;;;4983124;28;20042;-73
2023/07/28 05:52:47;;;;;;;9.07;6.53;;;26.20;88.90;;;;;;4983232;28;20185;-73
2023/07/28 05:55:13;;;;;;;7.05;6.35;;;26.30;88.70;;;;;;4981502;28;20887;-72
2023/07/28 05:57:39;;;;;;;7.53;6.28;;;26.30;88.40;;;;;;4986557;28;20206;-72
2023/07/28 06:00:09;;;;;;;7.20;5.63;;;26.30;88.10;;;;;;4981077;28;20026;-72
2023/07/28 06:02:39;;;;;;;6.65;5.90;;;26.30;87.90;;;;;;4982788;28;20125;-72
2023/07/28 06:05:08;;;;;;;6.22;5.63;;;26.30;87.90;;;;;;4995965;28;20124;-73
2023/07/28 06:07:34;;;;;;;7.13;5.50;;;26.40;87.90;;;;;;4980226;28;20078;-72
2023/07/28 06:10:00;;;;;;;5.93;5.28;;;26.40;88.00;;;;;;4985342;28;20049;-71
2023/07/28 06:12:26;;;;;;;5.50;5.00;;;26.40;87.80;;;;;;4980524;28;20568;-73
2023/07/28 06:14:52;;;;;;;8.30;5.38;;;26.40;87.80;;;;;;4983504;28;20126;-73
2023/07/28 06:17:18;;;;;;;6.65;5.50;;;26.40;87.80;;;;;;4980029;28;20109;-72
2023/07/28 06:19:44;;;;;;;5.60;4.78;;;26.40;87.90;;;;;;4978930;28;20034;-73
2023/07/28 06:22:11;;;;;;;7.10;5.18;;;26.30;87.70;;;;;;4980112;28;20121;-72
2023/07/28 06:24:42;;;;;;;7.00;5.40;;;26.40;87.90;;;;;;4979110;28;20125;-72
2023/07/28 06:27:09;;;;;;;8.20;5.20;;;26.40;88.10;;;;;;4982124;28;20030;-73
2023/07/28 06:29:37;;;;;;;6.78;5.55;;;26.40;88.00;;;;;;4981420;28;20034;-73
2023/07/28 06:32:03;;;;;;;10.65;5.50;;;26.50;88.00;;;;;;4968106;28;20137;-73
2023/07/28 06:34:29;;;;;;;8.45;4.93;;;26.50;87.90;;;;;;4982577;28;20061;-73
2023/07/28 06:36:57;;;;;;;5.20;4.60;;;26.50;87.80;;;;;;4981931;28;20069;-72
2023/07/28 06:39:24;;;;;;;6.93;4.75;;;26.60;87.20;;;;;;4979900;28;20037;-73
2023/07/28 06:41:50;;;;;;;9.02;4.30;;;26.60;86.80;;;;;;4980317;28;20045;-73
2023/07/28 06:44:18;;;;;;;5.90;4.32;;;26.60;86.70;;;;;;4982842;28;20118;-73
2023/07/28 06:46:45;;;;;;;4.80;4.30;;;26.60;86.80;;;;;;4978523;28;20172;-73
2023/07/28 06:49:11;;;;;;;6.55;4.32;;;26.60;86.50;;;;;;4980062;28;20137;-72
2023/07/28 06:51:37;;;;;;;8.98;4.82;;;26.60;86.60;;;;;;4978825;28;20038;-73
2023/07/28 06:54:03;;;;;;;7.78;4.80;;;26.60;86.60;;;;;;4964370;28;20549;-73
2023/07/28 06:56:29;;;;;;;7.90;4.40;;;26.40;87.00;;;;;;4979578;28;20042;-72
2023/07/28 06:58:55;;;;;;;9.07;4.78;;;26.40;87.30;;;;;;4980641;28;20084;-73
2023/07/28 07:01:22;;;;;;;9.90;4.63;;;26.40;87.70;;;;;;4979475;28;20046;-72
2023/07/28 07:03:48;;;;;;;8.38;4.85;;;26.30;87.70;;;;;;4983974;28;20041;-72
2023/07/28 07:06:14;;;;;;;5.72;4.22;;;26.30;88.00;;;;;;4996435;28;20038;-72
2023/07/28 07:08:40;;;;;;;6.82;4.75;;;26.30;88.30;;;;;;4980112;28;20081;-72
2023/07/28 07:11:05;;;;;;;7.70;4.80;;;26.20;88.20;;;;;;4978555;28;20039;-71
2023/07/28 07:13:32;;;;;;;7.32;4.75;;;26.20;88.30;;;;;;4980596;28;20034;-72
2023/07/28 07:15:57;;;;;;;5.75;4.68;;;26.20;88.50;;;;;;4980632;28;20512;-72
2023/07/28 07:18:23;;;;;;;6.65;5.22;;;26.20;88.50;;;;;;4980256;28;20050;-72
2023/07/28 07:20:50;;;;;;;10.20;4.57;;;26.20;88.40;;;;;;4981516;28;20102;-72
2023/07/28 07:23:15;;;;;;;5.95;4.50;;;26.10;88.40;;;;;;4980939;28;20042;-72
2023/07/28 07:25:42;;;;;;;8.57;4.57;;;26.10;88.40;;;;;;4979143;28;20039;-72
2023/07/28 07:28:08;;;;;;;6.95;4.38;;;26.10;88.40;;;;;;4981614;28;20141;-72
2023/07/28 07:30:34;;;;;;;8.50;4.80;;;26.10;88.50;;;;;;4980232;28;20185;-71
2023/07/28 07:33:00;;;;;;;8.50;4.72;;;26.10;89.20;;;;;;4981505;28;20037;-74
2023/07/28 07:35:26;;;;;;;5.85;4.95;;;26.10;88.80;;;;;;4980328;28;20034;-74
2023/07/28 07:37:52;;;;;;;7.55;4.88;;;26.10;89.00;;;;;;4980785;28;20061;-74
2023/07/28 07:40:18;;;;;;;12.75;4.80;;;26.10;89.00;;;;;;4981385;28;20050;-70
2023/07/28 07:42:48;;;;;;;7.97;4.95;;;26.10;88.80;;;;;;4980191;28;20033;-71
2023/07/28 07:45:15;;;;;;;6.22;4.50;;;26.10;88.70;;;;;;4981777;28;20105;-72
2023/07/28 07:47:42;;;;;;;7.43;4.72;;;26.20;88.70;;;;;;4983760;28;20047;-72
2023/07/28 07:50:09;;;;;;;9.00;5.88;;;26.20;88.70;;;;;;4978918;28;20046;-72
2023/07/28 07:52:36;;;;;;;11.65;6.03;;;26.10;89.80;;;;;;4981708;28;20044;-72
2023/07/28 07:55:03;;;;;;;11.55;5.95;;;26.10;89.60;;;;;;4981810;28;20038;-72
2023/07/28 07:57:29;;;;;;;8.75;5.97;;;26.10;89.40;;;;;;4979448;28;20096;-71
2023/07/28 07:59:57;;;;;;;9.05;5.88;;;26.20;89.40;;;;;;4978826;28;20039;-71
2023/07/28 08:02:23;;;;;;;9.10;6.18;;;26.20;89.40;;;;;;4978776;28;20062;-72
2023/07/28 08:04:49;;;;;;;10.80;6.20;;;26.20;89.70;;;;;;4979643;28;20391;-73
2023/07/28 08:07:16;;;;;;;10.52;6.47;;;26.10;89.90;;;;;;4980043;28;20030;-72
2023/07/28 08:09:42;;;;;;;9.82;6.03;;;26.20;90.20;;;;;;4979854;28;20033;-72
2023/07/28 08:12:08;;;;;;;7.00;5.28;;;26.20;90.10;;;;;;4979164;28;20497;-73
2023/07/28 08:14:34;;;;;;;8.48;5.60;;;26.30;90.00;;;;;;4979662;28;20034;-73
2023/07/28 08:17:00;;;;;;;9.98;5.88;;;26.30;90.00;;;;;;4979943;28;20054;-73
2023/07/28 08:19:26;;;;;;;9.27;5.28;;;26.40;89.90;;;;;;4994078;28;20154;-73
2023/07/28 08:21:52;;;;;;;9.02;5.03;;;26.40;89.90;;;;;;4985192;28;20089;-73
2023/07/28 08:24:18;;;;;;;7.00;5.47;;;26.40;89.60;;;;;;4981099;28;20100;-73
2023/07/28 08:26:44;;;;;;;9.60;5.10;;;26.40;89.40;;;;;;4988450;28;20544;-73
2023/07/28 08:29:10;;;;;;;6.10;5.18;;;26.50;89.60;;;;;;4990315;28;20052;-73
2023/07/28 08:31:36;;;;;;;7.47;5.18;;;26.60;89.30;;;;;;4987546;28;20174;-73
2023/07/28 08:34:02;;;;;;;9.95;5.18;;;26.60;88.80;;;;;;4986849;28;20041;-74
2023/07/28 08:36:29;;;;;;;10.02;5.70;;;26.60;88.50;;;;;;4987790;28;20133;-74
2023/07/28 08:38:54;;;;;;;6.55;4.93;;;26.60;87.90;;;;;;4991944;28;20138;-73
2023/07/28 08:41:20;;;;;;;5.35;4.20;;;26.70;88.10;;;;;;4990355;28;20129;-74
2023/07/28 08:43:46;;;;;;;8.65;5.10;;;26.70;88.40;;;;;;4994162;28;20069;-74
2023/07/28 08:46:13;;;;;;;9.05;4.70;;;26.70;88.50;;;;;;4992969;28;20034;-74
2023/07/28 08:48:39;;;;;;;7.20;5.00;;;26.80;88.50;;;;;;4992528;28;20077;-74
2023/07/28 08:51:05;;;;;;;9.23;5.03;;;26.80;88.50;;;;;;4988756;28;20497;-73
2023/07/28 08:53:31;;;;;;;7.85;4.65;;;26.80;88.40;;;;;;4983645;28;20037;-74
2023/07/28 08:55:57;;;;;;;9.27;5.20;;;26.80;88.40;;;;;;4992445;28;20052;-73
2023/07/28 08:58:24;;;;;;;7.47;4.72;;;26.80;88.30;;;;;;4994066;28;20034;-73
2023/07/28 09:00:52;;;;;;;9.23;4.80;;;26.80;88.40;;;;;;4987760;28;20053;-73
2023/07/28 09:03:18;;;;;;;5.55;4.80;;;26.90;88.20;;;;;;4985055;28;20023;-74
2023/07/28 09:05:48;;;;;;;7.95;5.22;;;26.90;88.10;;;;;;4984226;28;20038;-75
2023/07/28 09:08:17;;;;;;;7.32;4.47;;;26.90;88.00;;;;;;4982860;28;20042;-73
2023/07/28 09:10:57;;;;;;;5.15;4.47;;;26.90;87.70;;;;;;4984105;28;20035;-73
2023/07/28 09:13:24;;;;;;;7.32;4.68;;;26.90;86.30;;;;;;4984304;28;20538;-72
2023/07/28 09:15:50;;;;;;;6.05;4.90;;;26.90;86.90;;;;;;4984670;28;20037;-73
2023/07/28 09:18:17;;;;;;;7.03;4.38;;;26.90;85.00;;;;;;4983899;28;20498;-73
2023/07/28 09:20:46;;;;;;;6.00;4.32;;;26.90;85.30;;;;;;5012455;28;20038;-73
2023/07/28 09:23:14;;;;;;;5.18;4.45;;;26.90;85.70;;;;;;4981461;28;20031;-72
2023/07/28 09:25:40;;;;;;;5.40;4.32;;;26.90;85.50;;;;;;4983631;28;20619;-72
2023/07/28 09:28:06;;;;;;;5.97;4.72;;;26.90;85.40;;;;;;4981357;28;20152;-72
2023/07/28 09:30:49;;;;;;;6.43;4.40;;;26.80;85.00;;;;;;4982503;28;20121;-72
2023/07/28 09:33:32;;;;;;;5.53;4.28;;;26.80;84.90;;;;;;4984498;28;20202;-72
2023/07/28 09:36:11;;;;;;;6.65;4.53;;;26.80;85.30;;;;;;4983465;28;20102;-72
2023/07/28 09:38:40;;;;;;;5.40;4.32;;;26.80;86.10;;;;;;4983760;28;20027;-71
2023/07/28 09:41:11;;;;;;;4.85;4.35;;;26.80;85.50;;;;;;4981937;28;20452;-72
2023/07/28 09:43:38;;;;;;;5.50;4.70;;;26.80;85.40;;;;;;4984156;28;20529;-72
2023/07/28 09:46:07;;;;;;;6.18;4.40;;;26.80;85.30;;;;;;4982618;28;20031;-71
2023/07/28 09:48:34;;;;;;;7.38;5.10;;;26.80;85.50;;;;;;4982212;28;20059;-72
2023/07/28 09:51:14;;;;;;;6.47;4.43;;;26.70;85.20;;;;;;4982952;28;20034;-72
2023/07/28 09:53:49;;;;;;;7.47;4.45;;;26.70;85.50;;;;;;4983134;28;20038;-71
2023/07/28 09:56:18;;;;;;;4.80;4.28;;;26.70;86.00;;;;;;4984078;28;20085;-71
2023/07/28 09:58:52;;;;;;;5.75;5.05;;;26.70;85.60;;;;;;4981227;28;20038;-71
2023/07/28 10:01:21;;;;;;;9.55;5.20;;;26.70;85.50;;;;;;4982642;28;20073;-71
2023/07/28 10:03:48;;;;;;;7.00;4.70;;;26.70;85.90;;;;;;4983691;28;20500;-73
2023/07/28 10:06:16;;;;;;;5.18;4.68;;;26.70;85.90;;;;;;4982545;28;20062;-71
2023/07/28 10:08:43;;;;;;;5.47;4.60;;;26.60;86.10;;;;;;4981431;28;20046;-72
2023/07/28 10:11:13;;;;;;;8.43;5.57;;;26.60;86.60;;;;;;5012340;28;20410;-72
2023/07/28 10:13:46;;;;;;;10.98;5.68;;;26.60;86.80;;;;;;4982000;28;20038;-72
2023/07/28 10:16:16;;;;;;;5.88;4.80;;;26.60;87.30;;;;;;4981384;28;20437;-72
2023/07/28 10:18:51;;;;;;;8.45;5.35;;;26.60;87.20;;;;;;4983584;28;20090;-72
2023/07/28 10:21:17;;;;;;;5.90;5.07;;;26.50;87.10;;;;;;4984217;28;20113;-72
2023/07/28 10:23:44;;;;;;;11.32;5.18;;;26.50;87.10;;;;;;4980662;28;20193;-73
2023/07/28 10:26:10;;;;;;;6.57;5.30;;;26.60;87.10;;;;;;4982802;28;20041;-72
2023/07/28 10:28:43;;;;;;;9.73;5.60;;;26.50;87.00;;;;;;4981681;28;20034;-72
2023/07/28 10:31:10;;;;;;;6.75;5.20;;;26.50;86.90;;;;;;4981579;28;20114;-72
2023/07/28 10:33:39;;;;;;;8.73;5.57;;;26.50;86.80;;;;;;4981190;28;20030;-73
2023/07/28 10:36:33;;;;;;;6.80;5.15;;;26.50;87.50;;;;;;4981395;28;20520;-72
2023/07/28 10:39:07;;;;;;;5.57;4.70;;;26.50;86.90;;;;;;4981553;28;20409;-72
2023/07/28 10:41:35;;;;;;;5.70;5.10;;;26.50;87.10;;;;;;4982643;28;20027;-72
2023/07/28 10:44:02;;;;;;;9.30;5.05;;;26.50;87.10;;;;;;4980187;28;20466;-74
2023/07/28 10:46:29;;;;;;;9.25;5.95;;;26.50;87.10;;;;;;4980210;28;20038;-71
2023/07/28 10:48:55;;;;;;;7.63;5.85;;;26.50;87.10;;;;;;4982482;28;20046;-71
2023/07/28 10:51:24;;;;;;;7.95;6.00;;;26.50;87.30;;;;;;4980622;28;20940;-71
2023/07/28 10:53:57;;;;;;;8.85;6.15;;;26.50;87.40;;;;;;4981363;28;20047;-71
2023/07/28 10:56:23;;;;;;;8.57;5.70;;;26.50;87.50;;;;;;4979119;28;20031;-71
2023/07/28 10:59:00;;;;;;;8.98;5.93;;;26.60;87.50;;;;;;4981818;28;20035;-71
2023/07/28 11:01:33;;;;;;;12.40;5.95;;;26.60;87.40;;;;;;4980332;28;20517;-70
2023/07/28 11:04:26;;;;;;;8.38;6.60;;;26.60;87.30;;;;;;4979530;28;20085;-71
2023/07/28 11:06:52;;;;;;;12.25;5.70;;;26.60;87.40;;;;;;4979525;28;20039;-71
2023/07/28 11:09:21;;;;;;;11.25;6.28;;;26.60;87.40;;;;;;4980010;28;20489;-73
2023/07/28 11:11:49;;;;;;;12.23;6.22;;;26.60;87.40;;;;;;4980339;28;20039;-71
2023/07/28 11:14:17;;;;;;;10.32;5.85;;;26.70;87.30;;;;;;4980344;28;20045;-70
2023/07/28 11:16:49;;;;;;;8.95;6.65;;;26.70;87.70;;;;;;4980549;28;20050;-71
2023/07/28 11:19:19;;;;;;;13.15;6.70;;;26.70;88.00;;;;;;4980512;28;20460;-72
2023/07/28 11:21:50;;;;;;;10.40;6.63;;;26.70;87.70;;;;;;4980692;28;20045;-73
2023/07/28 11:24:19;;;;;;;10.25;6.25;;;26.60;87.40;;;;;;4981475;28;20524;-72
2023/07/28 11:26:48;;;;;;;11.55;6.00;;;26.60;87.50;;;;;;4980709;28;20425;-73
2023/07/28 11:29:15;;;;;;;10.35;6.88;;;26.70;87.80;;;;;;4981523;28;20031;-69
2023/07/28 11:31:41;;;;;;;12.32;6.95;;;26.70;87.70;;;;;;4981206;28;20042;-70
2023/07/28 11:34:14;;;;;;;9.25;6.63;;;26.70;87.90;;;;;;4982243;28;20027;-71
2023/07/28 11:36:41;;;;;;;10.60;6.88;;;26.60;88.00;;;;;;4981093;28;20145;-71
2023/07/28 11:39:08;;;;;;;12.30;7.45;;;26.70;88.20;;;;;;4981396;28;20022;-70
2023/07/28 11:41:34;;;;;;;12.23;7.18;;;26.60;88.20;;;;;;4979224;28;20038;-71
2023/07/28 11:44:01;;;;;;;10.73;7.22;;;26.60;88.50;;;;;;4981238;28;20536;-70
2023/07/28 11:46:39;;;;;;;14.93;6.57;;;26.60;88.40;;;;;;4976134;28;20087;-69
2023/07/28 11:49:21;;;;;;;9.20;7.03;;;26.70;88.50;;;;;;4980212;28;20030;-69
2023/07/28 11:51:49;;;;;;;15.98;7.10;;;26.60;88.60;;;;;;4979614;28;20026;-69
2023/07/28 11:54:21;;;;;;;12.23;6.65;;;26.60;88.50;;;;;;4963923;28;20129;-71
2023/07/28 11:56:48;;;;;;;12.55;7.50;;;26.70;88.60;;;;;;4981645;28;20077;-74
2023/07/28 11:59:19;;;;;;;8.43;6.68;;;26.70;88.40;;;;;;4983536;28;20402;-73
2023/07/28 12:02:02;;;;;;;8.70;6.63;;;26.70;88.40;;;;;;4982049;28;20038;-72
2023/07/28 12:04:31;;;;;;;8.75;6.60;;;26.70;88.60;;;;;;4980092;28;20056;-70
2023/07/28 12:07:06;;;;;;;15.60;6.95;;;26.70;88.60;;;;;;4979547;28;20128;-71
2023/07/28 12:09:52;;;;;;;;;;;26.80;88.60;;;;;;4980654;28;20030;-72
2023/07/28 12:12:20;;;;;;;10.45;7.15;;;26.80;88.60;;;;;;4979004;28;20339;-72
2023/07/28 12:14:47;;;;;;;11.52;6.85;;;26.80;88.60;;;;;;4979616;28;20581;-72
2023/07/28 12:17:20;;;;;;;10.52;7.28;;;26.80;88.60;;;;;;4978891;28;20785;-73
2023/07/28 12:19:59;;;;;;;9.63;7.40;;;26.70;88.60;;;;;;4979306;28;20058;-73
2023/07/28 12:22:28;;;;;;;9.82;7.43;;;26.60;88.70;;;;;;4979345;28;20039;-73
2023/07/28 12:24:55;;;;;;;8.27;7.28;;;26.70;88.70;;;;;;4981226;28;20505;-72
2023/07/28 12:27:23;;;;;;;10.85;7.50;;;26.60;88.70;;;;;;4980571;28;20034;-73
2023/07/28 12:29:50;;;;;;;10.18;7.35;;;26.50;88.60;;;;;;4981039;28;20031;-74
2023/07/28 12:32:16;;;;;;;11.15;7.07;;;26.50;88.40;;;;;;4979651;28;20039;-74
2023/07/28 12:34:42;;;;;;;8.68;6.97;;;26.50;88.50;;;;;;4980269;28;20030;-72
2023/07/28 12:37:08;;;;;;;10.18;7.65;;;26.50;88.40;;;;;;4980603;28;20051;-72
2023/07/28 12:39:41;;;;;;;12.35;6.97;;;26.50;88.70;;;;;;4978805;28;20045;-72
2023/07/28 12:42:11;;;;;;;10.68;8.38;;;26.40;88.70;;;;;;4983005;28;20030;-72
2023/07/28 12:44:37;;;;;;;9.70;7.68;;;26.40;88.70;;;;;;4977979;28;20038;-72